Oakland, MD

6:10 AM EST on February 09, 2016 (GMT -0500)
3634 Hutton Road | | Change Station
CLOSE
Current Station
Personal Weather Station
Location: Oakland, MD
Elevation: 2562 ft
Nearby Weather Stations
Active Advisory: Winter Weather Advisory

Elev 2562 ft 39.39 °N, 79.44 °W | Updated 13 minutes ago

Snow
Snow
26.8 °F
Feels Like 27 °F
N
0.0
Wind Variable Wind from SW

Today
High -- | Low -- °F
--% Chance of Precip.
Yesterday
High -- | Low -- °F
Precip. -- in
Pressure 29.44 in
Visibility 2.0 miles
Clouds
Windchill 27 °F
Dew Point 27 °F
Humidity 99%
Rainfall 0.00 in
Snow Depth Not available.
7:17 AM 5:47 PM
New Moon, 1% visible
METAR K2G4 091050Z AUTO 22006KT 2SM BR M03/M04 A2944 RMK AO1 SKY OBSCURED
Pressure 29.44 in
Visibility 2.0 miles
Clouds
Windchill 27 °F
Dew Point 27 °F
Humidity 99%
Rainfall 0.00 in
Snow Depth Not available.
7:17 AM 5:47 PM
New Moon, 1% visible
METAR K2G4 091050Z AUTO 22006KT 2SM BR M03/M04 A2944 RMK AO1 SKY OBSCURED

10-Day Weather Forecast

Almanac

Astronomy

Feb. 09, 2016 Rise Set
Actual Time
Civil Twilight
Nautical Twilight
Astronomical Twilight
Moon
Length of Visible Light
Length of Day
Tomorrow will be .
, % of the Moon is Illuminated

Today's Extremes

State Highs State Lows

Community

WunderPhotos

Upload Photos

1,891,565 photos uploaded!

WunderBlog® & News

Nearby

Air Quality

  Air Quality AQ Index Pollutant
Not available.

Snow Depth

Station Depth Elevation

Earthquake Activity

City Distance Mag. Time & Date
Minimum magnitude displayed is 2.5.

Coastal Water Temperatures

Place Temperature

Stations

Nearby Weather Stations

Station Location Temp. Windchill Dew Point Humidity Wind Precip. Elev Updated Type
                   

Watches & Warnings

Winter Weather Advisory
Issued: 3:13 AM EST Feb. 9, 2016 – National Weather Service

... Winter Weather Advisory remains in effect until 7 PM EST
Wednesday...

* snow accumulation... 4 to 8 inches.

* Period of most intense snow... through tonight.

* Snow ending... snow showers will continue into Wednesday before
gradually tapering down thereafter.

* Impacts... hazardous travel conditions are expected due to snow.

Precautionary/preparedness actions...

A Winter Weather Advisory for snow means that periods of snow
will cause primarily travel difficulties. Be prepared for snow
covered roads and limited visibilities... and use caution while
driving.